Westdorpe, Netherlands
Current Conditions -  °F | °C
As of 1:55 AM on Monday 24 Nov 2014 (Local Time) from EHFS Reporting Station
Light Rain Light Rain  
Wind Chill: 44°   Ceiling: 1100
Heat Index: 48°   Visibility: 5mi
Dew Point: 46°   Wind: 10mph
Humidity: 93%   Direction: 320°NW
Pressure: 30.09"   Gusts: NA
Location:  51.23°N, 3.83°E
Report Text: EHFS 240055Z AUTO 32009KT 290V350 8000 -RA FEW009/// BKN011///OVC013/// 09/08 Q1019 RERA REDZ
Loading
Personal Weather Stations






























Interactive Weather Map New forecast layout! Learn more

10-Day Weather Forecast

Advertisements
Track Severe Weather on mobile